createdAt,value
2022-08-20T00:00:55.874Z,0
2022-08-20T00:01:55.861Z,0
2022-08-20T00:02:55.888Z,0
2022-08-20T00:03:55.839Z,0
2022-08-20T00:04:55.832Z,0
2022-08-20T00:05:55.821Z,0
2022-08-20T00:06:55.810Z,0
2022-08-20T00:07:55.793Z,0
2022-08-20T00:08:55.786Z,0
2022-08-20T00:09:55.773Z,0
2022-08-20T00:10:55.768Z,0
2022-08-20T00:11:55.748Z,0
2022-08-20T00:12:55.733Z,0
2022-08-20T00:13:55.729Z,0
2022-08-20T00:14:55.717Z,0
2022-08-20T00:15:55.712Z,0
2022-08-20T00:16:55.709Z,0
2022-08-20T00:17:55.703Z,0
2022-08-20T00:18:55.676Z,0
2022-08-20T00:19:55.671Z,0
2022-08-20T00:20:55.654Z,0
2022-08-20T00:21:55.654Z,0
2022-08-20T00:22:55.645Z,0
2022-08-20T00:23:55.623Z,0
2022-08-20T00:24:55.618Z,0
2022-08-20T00:25:55.609Z,0
2022-08-20T00:26:55.592Z,0
2022-08-20T00:27:55.581Z,0
2022-08-20T00:28:55.577Z,0
2022-08-20T00:29:55.558Z,0
2022-08-20T00:30:55.551Z,0
2022-08-20T00:31:55.542Z,0
2022-08-20T00:32:55.528Z,0
2022-08-20T00:33:55.513Z,0
2022-08-20T00:34:55.507Z,0
2022-08-20T00:35:55.489Z,0
2022-08-20T00:36:55.486Z,0
2022-08-20T00:37:55.476Z,0
2022-08-20T00:38:55.466Z,0
2022-08-20T00:39:55.462Z,0
2022-08-20T00:40:55.440Z,0
2022-08-20T00:41:55.425Z,0
2022-08-20T00:42:55.421Z,0
2022-08-20T00:43:55.414Z,0
2022-08-20T00:44:55.394Z,0
2022-08-20T00:45:55.388Z,0
2022-08-20T00:46:55.382Z,0
2022-08-20T00:47:55.376Z,0
2022-08-20T00:48:55.356Z,0
2022-08-20T00:49:55.348Z,0
2022-08-20T00:50:55.335Z,0
2022-08-20T00:51:55.327Z,0
2022-08-20T00:52:55.316Z,0
2022-08-20T00:53:55.309Z,0
2022-08-20T00:54:55.290Z,0
2022-08-20T00:55:55.287Z,0
2022-08-20T00:56:55.275Z,0
2022-08-20T00:57:55.263Z,0
2022-08-20T00:58:55.254Z,0
2022-08-20T00:59:55.238Z,0
2022-08-20T01:00:55.229Z,0
2022-08-20T01:01:55.223Z,0
2022-08-20T01:02:55.210Z,0
2022-08-20T01:03:55.800Z,0
2022-08-20T01:04:55.186Z,0
2022-08-20T01:05:55.171Z,0
2022-08-20T01:06:55.169Z,0
2022-08-20T01:07:55.164Z,0
2022-08-20T01:08:55.147Z,0
2022-08-20T01:09:55.138Z,0
2022-08-20T01:10:55.127Z,0
2022-08-20T01:11:55.115Z,0
2022-08-20T01:12:55.104Z,0
2022-08-20T01:13:55.099Z,0
2022-08-20T01:14:55.080Z,0
2022-08-20T01:15:55.077Z,0
2022-08-20T01:16:55.065Z,0
2022-08-20T01:17:55.047Z,0
2022-08-20T01:18:55.032Z,0
2022-08-20T01:19:55.019Z,0
2022-08-20T01:20:55.015Z,0
2022-08-20T01:21:55.018Z,0
2022-08-20T01:22:54.990Z,0
2022-08-20T01:23:54.975Z,0
2022-08-20T01:24:54.975Z,0
2022-08-20T01:25:54.956Z,0
2022-08-20T01:26:54.944Z,0
2022-08-20T01:27:54.938Z,0
2022-08-20T01:28:54.924Z,0
2022-08-20T01:29:54.915Z,0
2022-08-20T01:30:54.918Z,0
2022-08-20T01:31:54.918Z,0
2022-08-20T01:32:54.877Z,0
2022-08-20T01:33:54.866Z,0
2022-08-20T01:34:54.860Z,0
2022-08-20T01:35:54.848Z,0
2022-08-20T01:36:54.849Z,0
2022-08-20T01:37:54.834Z,0
2022-08-20T01:38:54.813Z,0
2022-08-20T01:39:54.807Z,0
2022-08-20T01:40:54.813Z,0
2022-08-20T01:41:54.779Z,0
2022-08-20T01:42:54.773Z,0
2022-08-20T01:43:54.766Z,0
2022-08-20T01:44:54.755Z,0
2022-08-20T01:45:54.741Z,0
2022-08-20T01:46:54.737Z,0
2022-08-20T01:47:54.730Z,0
2022-08-20T01:48:54.740Z,0
2022-08-20T01:49:54.704Z,0
2022-08-20T01:50:54.687Z,0
2022-08-20T01:51:54.676Z,0
2022-08-20T01:52:54.666Z,0
2022-08-20T01:53:54.666Z,0
2022-08-20T01:54:54.651Z,0
2022-08-20T01:55:54.647Z,0
2022-08-20T01:56:54.620Z,0
2022-08-20T01:57:54.613Z,0
2022-08-20T01:58:54.601Z,0
2022-08-20T01:59:54.596Z,0
2022-08-20T02:00:54.580Z,0
2022-08-20T02:01:54.589Z,0
2022-08-20T02:02:54.557Z,0
2022-08-20T02:03:54.545Z,0
2022-08-20T02:04:54.537Z,0
2022-08-20T02:05:54.539Z,0
2022-08-20T02:06:54.513Z,0
2022-08-20T02:07:54.507Z,0
2022-08-20T02:08:54.497Z,0
2022-08-20T02:09:54.481Z,0
2022-08-20T02:10:54.473Z,0
2022-08-20T02:11:54.465Z,0
2022-08-20T02:12:54.453Z,0
2022-08-20T02:13:54.441Z,0
2022-08-20T02:14:54.439Z,0
2022-08-20T02:15:54.422Z,0
2022-08-20T02:16:54.413Z,0
2022-08-20T02:17:54.405Z,0
2022-08-20T02:18:54.397Z,0
2022-08-20T02:19:54.378Z,0
2022-08-20T02:20:54.370Z,0
2022-08-20T02:21:54.360Z,0
2022-08-20T02:22:54.357Z,0
2022-08-20T02:23:54.344Z,0
2022-08-20T02:24:54.364Z,0
2022-08-20T02:25:54.318Z,0
2022-08-20T02:26:54.312Z,0
2022-08-20T02:27:54.295Z,0
2022-08-20T02:28:54.292Z,0
2022-08-20T02:29:54.282Z,0
2022-08-20T02:30:54.273Z,0
2022-08-20T02:31:54.259Z,0
2022-08-20T02:33:01.825Z,0
2022-08-20T02:33:54.232Z,0
2022-08-20T02:34:54.225Z,0
2022-08-20T02:35:54.211Z,0
2022-08-20T02:36:54.205Z,0
2022-08-20T02:37:54.200Z,0
2022-08-20T02:38:54.199Z,0
2022-08-20T02:39:54.181Z,0
2022-08-20T02:40:54.179Z,0
2022-08-20T02:41:54.179Z,0
2022-08-20T02:42:54.164Z,0
2022-08-20T02:43:54.145Z,0
2022-08-20T02:44:54.127Z,0
2022-08-20T02:45:54.121Z,0
2022-08-20T02:46:54.099Z,0
2022-08-20T02:47:54.090Z,0
2022-08-20T02:48:54.080Z,0
2022-08-20T02:49:54.067Z,0
2022-08-20T02:50:54.051Z,0
2022-08-20T02:51:54.048Z,0
2022-08-20T02:52:54.030Z,0
2022-08-20T02:53:54.022Z,0
2022-08-20T02:54:54.011Z,0
2022-08-20T02:55:54.004Z,0
2022-08-20T02:56:53.995Z,0
2022-08-20T02:57:53.986Z,0
2022-08-20T02:58:53.970Z,0
2022-08-20T02:59:53.960Z,0
2022-08-20T03:00:53.950Z,0
2022-08-20T03:01:53.941Z,0
2022-08-20T03:02:53.927Z,0
2022-08-20T03:03:53.934Z,0
2022-08-20T03:04:53.904Z,0
2022-08-20T03:05:53.896Z,0
2022-08-20T03:06:53.891Z,0
2022-08-20T03:07:53.879Z,0
2022-08-20T03:08:53.868Z,0
2022-08-20T03:09:53.863Z,0
2022-08-20T03:10:53.854Z,0
2022-08-20T03:11:53.838Z,0
2022-08-20T03:12:53.825Z,0
2022-08-20T03:13:53.813Z,0
2022-08-20T03:14:53.805Z,0
2022-08-20T03:15:53.798Z,0
2022-08-20T03:16:53.793Z,0
2022-08-20T03:17:53.771Z,0
2022-08-20T03:18:53.760Z,0
2022-08-20T03:19:53.749Z,0
2022-08-20T03:20:53.743Z,0
2022-08-20T03:21:53.732Z,0
2022-08-20T03:22:53.727Z,0
2022-08-20T03:23:53.726Z,0
2022-08-20T03:24:53.705Z,0
2022-08-20T03:25:53.696Z,0
2022-08-20T03:26:53.690Z,0
2022-08-20T03:27:53.674Z,0
2022-08-20T03:28:53.667Z,0
2022-08-20T03:29:53.647Z,0
2022-08-20T03:30:53.637Z,0
2022-08-20T03:31:53.628Z,0
2022-08-20T03:32:53.623Z,0
2022-08-20T03:33:53.615Z,0
2022-08-20T03:34:53.610Z,0
2022-08-20T03:35:53.594Z,0
2022-08-20T03:36:53.588Z,0
2022-08-20T03:37:53.576Z,0
2022-08-20T03:38:53.557Z,0
2022-08-20T03:39:53.551Z,0
2022-08-20T03:40:53.535Z,0
2022-08-20T03:41:53.527Z,0
2022-08-20T03:42:53.522Z,0
2022-08-20T03:43:53.503Z,0
2022-08-20T03:44:53.498Z,0
2022-08-20T03:45:53.487Z,0
2022-08-20T03:46:53.472Z,0
2022-08-20T03:47:53.470Z,0
2022-08-20T03:48:53.448Z,0
2022-08-20T03:49:53.436Z,0
2022-08-20T03:50:53.429Z,0
2022-08-20T03:51:53.422Z,0
2022-08-20T03:52:53.426Z,0
2022-08-20T03:53:53.409Z,0
2022-08-20T03:54:53.383Z,0
2022-08-20T03:55:53.381Z,0
2022-08-20T03:56:53.374Z,0
2022-08-20T03:57:53.358Z,0
2022-08-20T03:58:53.350Z,0
2022-08-20T03:59:53.344Z,0
2022-08-20T04:00:53.329Z,0
2022-08-20T04:01:53.316Z,0
2022-08-20T04:02:53.303Z,0
2022-08-20T04:03:53.295Z,0
2022-08-20T04:04:53.283Z,0
2022-08-20T04:05:53.278Z,0
2022-08-20T04:06:53.269Z,0
2022-08-20T04:07:53.265Z,0
2022-08-20T04:08:53.248Z,0
2022-08-20T04:09:53.246Z,0
2022-08-20T04:10:53.225Z,0
2022-08-20T04:11:53.227Z,0
2022-08-20T04:12:53.201Z,0
2022-08-20T04:13:53.206Z,0
2022-08-20T04:14:53.180Z,0
2022-08-20T04:15:53.176Z,0
2022-08-20T04:16:53.169Z,0
2022-08-20T04:17:53.155Z,0
2022-08-20T04:18:53.157Z,0
2022-08-20T04:19:53.129Z,0
2022-08-20T04:20:53.120Z,0
2022-08-20T04:21:53.108Z,0
2022-08-20T04:22:53.100Z,0
2022-08-20T04:23:53.091Z,0
2022-08-20T04:24:53.095Z,0
2022-08-20T04:25:53.084Z,0
2022-08-20T04:26:53.057Z,0
2022-08-20T04:27:53.049Z,0
2022-08-20T04:28:53.048Z,0
2022-08-20T04:29:53.030Z,0
2022-08-20T04:30:53.027Z,0
2022-08-20T04:31:53.004Z,0
2022-08-20T04:32:53.001Z,0
2022-08-20T04:33:53.012Z,0
2022-08-20T04:34:52.980Z,0
2022-08-20T04:35:52.960Z,0
2022-08-20T04:36:52.970Z,0
2022-08-20T04:37:52.956Z,0
2022-08-20T04:38:52.935Z,0
2022-08-20T04:39:52.932Z,0
2022-08-20T04:40:52.913Z,0
2022-08-20T04:41:52.903Z,0
2022-08-20T04:42:52.908Z,0
2022-08-20T04:43:52.907Z,0
2022-08-20T04:44:52.877Z,0
2022-08-20T04:45:52.864Z,0
2022-08-20T04:46:52.858Z,0
2022-08-20T04:47:52.859Z,0
2022-08-20T04:48:52.842Z,0
2022-08-20T04:49:52.834Z,0
2022-08-20T04:50:52.809Z,0
2022-08-20T04:51:52.804Z,0
2022-08-20T04:52:52.793Z,0
2022-08-20T04:53:52.789Z,0
2022-08-20T04:54:52.792Z,0
2022-08-20T04:55:52.816Z,0
2022-08-20T04:56:52.758Z,0
2022-08-20T04:57:52.755Z,0
2022-08-20T04:58:52.734Z,0
2022-08-20T04:59:52.722Z,0
2022-08-20T05:00:52.716Z,0
2022-08-20T05:01:52.696Z,0
2022-08-20T05:02:52.686Z,0
2022-08-20T05:03:52.680Z,0
2022-08-20T05:04:52.679Z,0
2022-08-20T05:05:52.665Z,0
2022-08-20T05:06:52.642Z,0
2022-08-20T05:07:52.640Z,5.62
2022-08-20T05:08:52.625Z,5.62
2022-08-20T05:09:52.618Z,5.62
2022-08-20T05:10:52.601Z,5.62
2022-08-20T05:11:52.591Z,5.62
2022-08-20T05:12:52.585Z,5.62
2022-08-20T05:13:52.599Z,5.62
2022-08-20T05:14:52.568Z,5.62
2022-08-20T05:15:52.552Z,5.62
2022-08-20T05:16:52.552Z,5.62
2022-08-20T05:17:52.531Z,5.62
2022-08-20T05:18:52.519Z,5.62
2022-08-20T05:19:52.522Z,5.62
2022-08-20T05:20:52.496Z,5.62
2022-08-20T05:21:52.491Z,5.62
2022-08-20T05:22:52.488Z,5.62
2022-08-20T05:23:52.468Z,5.62
2022-08-20T05:24:52.461Z,11.25
2022-08-20T05:25:52.450Z,11.25
2022-08-20T05:26:52.448Z,11.25
2022-08-20T05:27:52.424Z,11.25
2022-08-20T05:28:52.429Z,11.25
2022-08-20T05:29:52.402Z,5.62
2022-08-20T05:30:52.393Z,5.62
2022-08-20T05:31:52.382Z,5.62
2022-08-20T05:32:52.372Z,5.62
2022-08-20T05:33:52.360Z,11.25
2022-08-20T05:34:52.348Z,11.25
2022-08-20T05:35:52.336Z,11.25
2022-08-20T05:36:52.344Z,16.88
2022-08-20T05:37:52.321Z,16.88
2022-08-20T05:38:52.306Z,16.88
2022-08-20T05:39:52.307Z,16.88
2022-08-20T05:40:52.325Z,16.88
2022-08-20T05:41:52.281Z,16.88
2022-08-20T05:42:52.265Z,16.88
2022-08-20T05:43:52.258Z,16.88
2022-08-20T05:44:52.246Z,16.88
2022-08-20T05:45:52.249Z,16.88
2022-08-20T05:46:52.230Z,16.88
2022-08-20T05:47:52.219Z,16.88
2022-08-20T05:48:52.212Z,22.5
2022-08-20T05:49:52.195Z,22.5
2022-08-20T05:50:52.196Z,22.5
2022-08-20T05:51:52.175Z,22.5
2022-08-20T05:52:52.162Z,22.5
2022-08-20T05:53:52.155Z,28.12
2022-08-20T05:54:52.150Z,28.12
2022-08-20T05:55:52.129Z,28.12
2022-08-20T05:56:52.117Z,33.75
2022-08-20T05:57:52.115Z,33.75
2022-08-20T05:58:52.092Z,33.75
2022-08-20T05:59:52.087Z,33.75
2022-08-20T06:00:52.071Z,39.38
2022-08-20T06:01:52.075Z,45
2022-08-20T06:02:52.088Z,45
2022-08-20T06:03:52.045Z,50.62
2022-08-20T06:04:52.033Z,50.62
2022-08-20T06:05:52.031Z,56.25
2022-08-20T06:06:52.009Z,56.25
2022-08-20T06:07:51.997Z,61.88
2022-08-20T06:08:52.011Z,61.88
2022-08-20T06:09:51.992Z,61.88
2022-08-20T06:10:51.968Z,67.5
2022-08-20T06:11:51.960Z,67.5
2022-08-20T06:12:51.951Z,67.5
2022-08-20T06:13:51.937Z,67.5
2022-08-20T06:14:51.936Z,61.88
2022-08-20T06:15:51.921Z,61.88
2022-08-20T06:16:51.904Z,61.88
2022-08-20T06:17:51.892Z,61.88
2022-08-20T06:18:51.882Z,61.88
2022-08-20T06:19:51.877Z,61.88
2022-08-20T06:20:51.862Z,61.88
2022-08-20T06:21:51.860Z,61.88
2022-08-20T06:22:51.844Z,67.5
2022-08-20T06:23:51.832Z,67.5
2022-08-20T06:24:51.822Z,67.5
2022-08-20T06:25:51.813Z,67.5
2022-08-20T06:26:51.800Z,67.5
2022-08-20T06:27:51.791Z,67.5
2022-08-20T06:28:51.787Z,67.5
2022-08-20T06:29:51.772Z,61.88
2022-08-20T06:30:51.754Z,61.88
2022-08-20T06:31:51.760Z,67.5
2022-08-20T06:32:51.738Z,67.5
2022-08-20T06:33:51.732Z,61.88
2022-08-20T06:34:51.733Z,61.88
2022-08-20T06:35:51.743Z,50.62
2022-08-20T06:36:51.719Z,50.62
2022-08-20T06:37:51.682Z,45
2022-08-20T06:38:51.672Z,39.38
2022-08-20T06:39:51.658Z,33.75
2022-08-20T06:40:51.656Z,33.75
2022-08-20T06:41:51.647Z,33.75
2022-08-20T06:42:51.640Z,28.12
2022-08-20T06:43:51.618Z,28.12
2022-08-20T06:44:51.628Z,28.12
2022-08-20T06:45:51.622Z,33.75
2022-08-20T06:46:51.587Z,45
2022-08-20T06:47:51.582Z,50.62
2022-08-20T06:48:51.566Z,56.25
2022-08-20T06:49:51.555Z,56.25
2022-08-20T06:50:51.544Z,61.88
2022-08-20T06:51:51.537Z,61.88
2022-08-20T06:52:51.520Z,61.88
2022-08-20T06:53:51.529Z,61.88
2022-08-20T06:54:51.508Z,61.88
2022-08-20T06:55:51.492Z,61.88
2022-08-20T06:56:51.482Z,67.5
2022-08-20T06:57:51.473Z,67.5
2022-08-20T06:58:51.463Z,67.5
2022-08-20T06:59:51.467Z,67.5
2022-08-20T07:00:51.438Z,73.12
2022-08-20T07:01:51.427Z,78.75
2022-08-20T07:02:51.482Z,78.75
2022-08-20T07:03:51.407Z,78.75
2022-08-20T07:04:51.401Z,78.75
2022-08-20T07:05:51.403Z,78.75
2022-08-20T07:06:51.420Z,78.75
2022-08-20T07:07:51.380Z,78.75
2022-08-20T07:08:51.375Z,78.75
2022-08-20T07:09:51.355Z,78.75
2022-08-20T07:10:51.367Z,78.75
2022-08-20T07:11:51.341Z,78.75
2022-08-20T07:12:51.337Z,78.75
2022-08-20T07:13:51.305Z,78.75
2022-08-20T07:14:51.336Z,78.75
2022-08-20T07:15:51.322Z,78.75
2022-08-20T07:16:51.272Z,78.75
2022-08-20T07:17:51.269Z,78.75
2022-08-20T07:18:51.253Z,78.75
2022-08-20T07:19:51.249Z,78.75
2022-08-20T07:20:51.244Z,73.12
2022-08-20T07:21:51.226Z,73.12
2022-08-20T07:22:51.216Z,73.12
2022-08-20T07:23:51.208Z,73.12
2022-08-20T07:24:51.191Z,78.75
2022-08-20T07:25:51.182Z,84.38
2022-08-20T07:26:51.174Z,84.38
2022-08-20T07:27:51.180Z,78.75
2022-08-20T07:28:51.159Z,78.75
2022-08-20T07:29:51.143Z,78.75
2022-08-20T07:30:51.135Z,78.75
2022-08-20T07:31:51.123Z,78.75
2022-08-20T07:32:51.113Z,78.75
2022-08-20T07:33:51.110Z,78.75
2022-08-20T07:34:51.099Z,78.75
2022-08-20T07:35:51.096Z,73.12
2022-08-20T07:36:51.066Z,56.25
2022-08-20T07:37:51.061Z,45
2022-08-20T07:38:51.050Z,39.38
2022-08-20T07:39:51.042Z,33.75
2022-08-20T07:40:51.045Z,28.12
2022-08-20T07:41:51.020Z,28.12
2022-08-20T07:42:51.041Z,28.12
2022-08-20T07:43:51.028Z,28.12
2022-08-20T07:44:50.992Z,22.5
2022-08-20T07:45:51.022Z,28.12
2022-08-20T07:46:50.970Z,28.12
2022-08-20T07:47:50.976Z,28.12
2022-08-20T07:48:50.953Z,28.12
2022-08-20T07:49:50.965Z,33.75
2022-08-20T07:50:50.935Z,33.75
2022-08-20T07:51:50.913Z,33.75
2022-08-20T07:52:50.980Z,39.38
2022-08-20T07:53:50.908Z,45
2022-08-20T07:54:50.897Z,50.62
2022-08-20T07:55:50.930Z,61.88
2022-08-20T07:56:50.877Z,67.5
2022-08-20T07:57:50.853Z,73.12
2022-08-20T07:58:50.919Z,78.75
2022-08-20T07:59:50.832Z,84.38
2022-08-20T08:00:50.825Z,95.62
2022-08-20T08:01:50.826Z,106.88
2022-08-20T08:02:50.809Z,118.12
2022-08-20T08:03:50.802Z,123.75
2022-08-20T08:04:50.782Z,135
2022-08-20T08:05:50.768Z,140.62
2022-08-20T08:06:50.776Z,146.25
2022-08-20T08:07:50.750Z,146.25
2022-08-20T08:08:50.737Z,146.25
2022-08-20T08:09:50.735Z,135
2022-08-20T08:10:50.736Z,123.75
2022-08-20T08:11:50.709Z,123.75
2022-08-20T08:12:50.702Z,123.75
2022-08-20T08:13:50.698Z,112.5
2022-08-20T08:14:50.702Z,95.62
2022-08-20T08:15:50.672Z,90
2022-08-20T08:16:50.655Z,95.62
2022-08-20T08:17:50.670Z,101.25
2022-08-20T08:18:50.638Z,112.5
2022-08-20T08:19:50.647Z,146.25
2022-08-20T08:20:50.630Z,168.75
2022-08-20T08:21:50.612Z,292.5
2022-08-20T08:22:50.602Z,303.75
2022-08-20T08:23:50.585Z,286.88
2022-08-20T08:24:50.576Z,230.62
2022-08-20T08:25:50.567Z,230.62
2022-08-20T08:26:50.623Z,264.38
2022-08-20T08:27:50.539Z,337.5
2022-08-20T08:28:50.576Z,331.88
2022-08-20T08:29:50.535Z,298.12
2022-08-20T08:30:50.512Z,315
2022-08-20T08:31:50.517Z,309.38
2022-08-20T08:32:50.560Z,292.5
2022-08-20T08:33:50.493Z,241.88
2022-08-20T08:34:50.519Z,219.38
2022-08-20T08:35:50.459Z,315
2022-08-20T08:36:50.451Z,343.12
2022-08-20T08:37:50.453Z,331.88
2022-08-20T08:38:50.426Z,337.5
2022-08-20T08:39:50.424Z,348.75
2022-08-20T08:40:50.431Z,337.5
2022-08-20T08:41:50.399Z,331.88
2022-08-20T08:42:50.416Z,241.88
2022-08-20T08:43:50.379Z,168.75
2022-08-20T08:44:50.400Z,140.62
2022-08-20T08:45:50.360Z,118.12
2022-08-20T08:46:50.353Z,95.62
2022-08-20T08:47:50.335Z,84.38
2022-08-20T08:48:50.351Z,78.75
2022-08-20T08:49:50.312Z,67.5
2022-08-20T08:50:50.317Z,67.5
2022-08-20T08:51:50.304Z,73.12
2022-08-20T08:52:50.327Z,78.75
2022-08-20T08:53:50.301Z,78.75
2022-08-20T08:54:50.283Z,78.75
2022-08-20T08:55:50.322Z,84.38
2022-08-20T08:56:50.252Z,95.62
2022-08-20T08:57:50.231Z,101.25
2022-08-20T08:58:50.238Z,101.25
2022-08-20T08:59:50.234Z,101.25
2022-08-20T09:00:50.207Z,106.88
2022-08-20T09:01:50.194Z,112.5
2022-08-20T09:02:50.181Z,106.88
2022-08-20T09:03:50.207Z,106.88
2022-08-20T09:04:50.231Z,106.88
2022-08-20T09:05:51.146Z,106.88
2022-08-20T09:06:50.133Z,106.88
2022-08-20T09:07:50.145Z,118.12
2022-08-20T09:08:50.133Z,129.38
2022-08-20T09:09:50.104Z,135
2022-08-20T09:10:50.099Z,140.62
2022-08-20T09:11:50.140Z,140.62
2022-08-20T09:12:58.157Z,146.25
2022-08-20T09:13:50.086Z,151.88
2022-08-20T09:14:50.081Z,163.12
2022-08-20T09:15:50.074Z,168.75
2022-08-20T09:16:50.074Z,185.62
2022-08-20T09:17:50.065Z,888.75
2022-08-20T09:18:50.016Z,1074.38
2022-08-20T09:19:50.061Z,1108.12
2022-08-20T09:20:50.007Z,1119.38
2022-08-20T09:21:49.993Z,838.12
2022-08-20T09:22:50.021Z,843.75
2022-08-20T09:23:49.983Z,770.62
2022-08-20T09:24:49.996Z,461.25
2022-08-20T09:25:49.974Z,1153.12
2022-08-20T09:26:49.937Z,1192.5
2022-08-20T09:27:49.968Z,1271.25
2022-08-20T09:28:49.932Z,1243.12
2022-08-20T09:29:49.895Z,1220.62
2022-08-20T09:30:49.892Z,1164.38
2022-08-20T09:31:49.884Z,1130.62
2022-08-20T09:32:49.871Z,1018.12
2022-08-20T09:33:49.891Z,1119.38
2022-08-20T09:34:49.902Z,1147.5
2022-08-20T09:35:50.829Z,1023.75
2022-08-20T09:36:49.839Z,731.25
2022-08-20T09:37:49.812Z,1136.25
2022-08-20T09:38:49.803Z,180
2022-08-20T09:39:49.811Z,140.62
2022-08-20T09:40:49.792Z,129.38
2022-08-20T09:41:49.823Z,123.75
2022-08-20T09:42:49.767Z,135
2022-08-20T09:43:49.817Z,140.62
2022-08-20T09:44:49.761Z,140.62
2022-08-20T09:47:12.070Z,185.62
2022-08-20T09:48:12.041Z,241.88
2022-08-20T09:49:12.052Z,444.38
2022-08-20T09:50:12.018Z,247.5
2022-08-20T09:51:12.020Z,236.25
2022-08-20T09:52:12.009Z,241.88
2022-08-20T09:53:12.028Z,264.38
2022-08-20T09:54:11.978Z,315
2022-08-20T09:55:11.984Z,309.38
2022-08-20T09:56:11.990Z,708.75
2022-08-20T09:57:11.950Z,303.75
2022-08-20T09:58:11.957Z,405
2022-08-20T09:59:11.931Z,230.62
2022-08-20T10:00:11.939Z,213.75
2022-08-20T10:01:11.992Z,230.62
2022-08-20T10:02:11.892Z,309.38
2022-08-20T10:03:11.942Z,1288.12
2022-08-20T10:04:11.898Z,416.25
2022-08-20T10:05:12.029Z,253.12
2022-08-20T10:06:11.872Z,781.88
2022-08-20T10:07:11.867Z,849.38
2022-08-20T10:08:11.844Z,315
2022-08-20T10:09:11.827Z,326.25
2022-08-20T10:10:11.834Z,483.75
2022-08-20T10:11:11.875Z,376.88
2022-08-20T10:12:11.842Z,444.38
2022-08-20T10:13:11.804Z,163.12
2022-08-20T10:14:11.829Z,118.12
2022-08-20T10:15:12.919Z,90
2022-08-20T10:16:11.750Z,84.38
2022-08-20T10:17:11.759Z,95.62
2022-08-20T10:18:11.763Z,118.12
2022-08-20T10:19:11.728Z,140.62
2022-08-20T10:20:11.753Z,146.25
2022-08-20T10:21:11.703Z,163.12
2022-08-20T10:22:11.703Z,1265.62
2022-08-20T10:23:11.917Z,1479.38
2022-08-20T10:24:11.682Z,1501.88
2022-08-20T10:25:11.660Z,1490.62
2022-08-20T10:26:11.675Z,1524.38
2022-08-20T10:27:11.653Z,1546.88
2022-08-20T10:28:11.646Z,1501.88
2022-08-20T10:29:11.664Z,1513.12
2022-08-20T10:30:11.608Z,1400.62
2022-08-20T10:31:11.602Z,1226.25
2022-08-20T10:32:11.592Z,495
2022-08-20T10:33:11.598Z,534.38
2022-08-20T10:34:11.588Z,596.25
2022-08-20T10:35:11.566Z,483.75
2022-08-20T10:36:11.570Z,641.25
2022-08-20T10:37:11.547Z,365.62
2022-08-20T10:38:11.537Z,219.38
2022-08-20T10:39:11.535Z,135
2022-08-20T10:40:11.511Z,118.12
2022-08-20T10:41:11.495Z,118.12
2022-08-20T10:42:11.516Z,129.38
2022-08-20T10:43:11.479Z,151.88
2022-08-20T10:44:11.466Z,157.5
2022-08-20T10:45:11.459Z,174.38
2022-08-20T10:46:11.480Z,180
2022-08-20T10:47:11.452Z,180
2022-08-20T10:48:11.425Z,191.25
2022-08-20T10:49:11.453Z,241.88
2022-08-20T10:50:11.423Z,348.75
2022-08-20T10:51:11.395Z,320.62
2022-08-20T10:52:11.385Z,601.88
2022-08-20T10:53:11.385Z,360
2022-08-20T10:54:11.360Z,562.5
2022-08-20T10:55:11.345Z,1141.88
2022-08-20T10:56:11.334Z,253.12
2022-08-20T10:57:11.357Z,343.12
2022-08-20T10:58:11.400Z,1513.12
2022-08-20T10:59:11.317Z,1479.38
2022-08-20T11:00:11.300Z,1541.25
2022-08-20T11:01:11.287Z,1603.12
2022-08-20T11:02:11.277Z,1260
2022-08-20T11:03:11.267Z,1569.38
2022-08-20T11:04:11.264Z,506.25
2022-08-20T11:05:11.262Z,1018.12
2022-08-20T11:06:11.367Z,275.62
2022-08-20T11:07:11.288Z,180
2022-08-20T11:08:11.215Z,146.25
2022-08-20T11:09:11.204Z,129.38
2022-08-20T11:10:11.232Z,135
2022-08-20T11:11:11.328Z,140.62
2022-08-20T11:12:11.197Z,118.12
2022-08-20T11:13:11.221Z,106.88
2022-08-20T11:14:11.156Z,95.62
2022-08-20T11:15:11.142Z,95.62
2022-08-20T11:16:11.154Z,90
2022-08-20T11:17:11.147Z,95.62
2022-08-20T11:18:11.120Z,95.62
2022-08-20T11:19:11.115Z,101.25
2022-08-20T11:20:11.123Z,106.88
2022-08-20T11:21:11.097Z,112.5
2022-08-20T11:22:11.078Z,106.88
2022-08-20T11:23:11.061Z,95.62
2022-08-20T11:24:11.070Z,84.38
2022-08-20T11:25:11.041Z,90
2022-08-20T11:26:11.043Z,101.25
2022-08-20T11:27:11.028Z,118.12
2022-08-20T11:28:11.019Z,157.5
2022-08-20T11:29:11.000Z,191.25
2022-08-20T11:30:11.014Z,286.88
2022-08-20T11:31:11.048Z,331.88
2022-08-20T11:32:10.981Z,427.5
2022-08-20T11:33:10.963Z,292.5
2022-08-20T11:34:10.979Z,168.75
2022-08-20T11:35:10.939Z,140.62
2022-08-20T11:36:10.935Z,118.12
2022-08-20T11:37:10.917Z,112.5
2022-08-20T11:38:10.928Z,112.5
2022-08-20T11:39:10.896Z,106.88
2022-08-20T11:40:10.909Z,101.25
2022-08-20T11:41:10.878Z,95.62
2022-08-20T11:42:10.869Z,90
2022-08-20T11:43:10.857Z,84.38
2022-08-20T11:44:10.863Z,78.75
2022-08-20T11:45:10.834Z,78.75
2022-08-20T11:46:11.737Z,78.75
2022-08-20T11:47:10.839Z,78.75
2022-08-20T11:48:10.814Z,78.75
2022-08-20T11:49:10.796Z,73.12
2022-08-20T11:50:10.799Z,61.88
2022-08-20T11:51:10.801Z,61.88
2022-08-20T11:52:10.797Z,61.88
2022-08-20T11:53:10.752Z,67.5
2022-08-20T11:54:10.743Z,67.5
2022-08-20T11:55:10.756Z,67.5
2022-08-20T11:56:10.742Z,67.5
2022-08-20T11:57:10.732Z,61.88
2022-08-20T11:58:10.710Z,56.25
2022-08-20T11:59:10.751Z,45
2022-08-20T12:00:11.687Z,39.38
2022-08-20T12:01:19.855Z,33.75
2022-08-20T12:02:10.654Z,33.75
2022-08-20T12:03:10.663Z,28.12
2022-08-20T12:04:10.634Z,28.12
2022-08-20T12:05:10.694Z,33.75
2022-08-20T12:06:10.722Z,33.75
2022-08-20T12:07:10.610Z,39.38
2022-08-20T12:08:10.627Z,45
2022-08-20T12:09:10.579Z,50.62
2022-08-20T12:10:10.571Z,56.25
2022-08-20T12:11:10.574Z,67.5
2022-08-20T12:12:10.572Z,78.75
2022-08-20T12:13:10.541Z,84.38
2022-08-20T12:14:10.545Z,90
2022-08-20T12:15:10.524Z,101.25
2022-08-20T12:16:10.511Z,106.88
2022-08-20T12:17:10.588Z,118.12
2022-08-20T12:18:10.486Z,135
2022-08-20T12:19:10.481Z,151.88
2022-08-20T12:20:10.467Z,174.38
2022-08-20T12:21:10.467Z,202.5
2022-08-20T12:22:10.463Z,230.62
2022-08-20T12:23:10.449Z,253.12
2022-08-20T12:24:10.423Z,275.62
2022-08-20T12:25:10.421Z,315
2022-08-20T12:26:10.403Z,416.25
2022-08-20T12:27:10.396Z,495
2022-08-20T12:28:10.494Z,399.38
2022-08-20T12:29:10.381Z,382.5
2022-08-20T12:30:10.364Z,416.25
2022-08-20T12:31:10.378Z,472.5
2022-08-20T12:32:10.347Z,438.75
2022-08-20T12:33:10.375Z,438.75
2022-08-20T12:34:10.320Z,871.88
2022-08-20T12:35:10.347Z,843.75
2022-08-20T12:36:10.309Z,388.12
2022-08-20T12:37:10.315Z,331.88
2022-08-20T12:38:10.279Z,337.5
2022-08-20T12:39:10.280Z,545.62
2022-08-20T12:40:10.287Z,511.88
2022-08-20T12:41:10.259Z,793.12
2022-08-20T12:42:10.239Z,1591.88
2022-08-20T12:43:10.243Z,1625.62
2022-08-20T12:44:10.222Z,1580.62
2022-08-20T12:45:10.213Z,900
2022-08-20T12:46:10.217Z,680.62
2022-08-20T12:47:10.337Z,1546.88
2022-08-20T12:48:10.190Z,1597.5
2022-08-20T12:49:10.164Z,1586.25
2022-08-20T12:50:10.163Z,1659.38
2022-08-20T12:51:10.170Z,1665
2022-08-20T12:52:10.146Z,1591.88
2022-08-20T12:53:17.718Z,1518.75
2022-08-20T12:54:10.214Z,669.38
2022-08-20T12:55:10.127Z,438.75
2022-08-20T12:56:10.154Z,1490.62
2022-08-20T12:57:10.083Z,826.88
2022-08-20T12:58:10.092Z,1558.12
2022-08-20T12:59:10.063Z,1423.12
2022-08-20T13:00:10.080Z,1518.75
2022-08-20T13:01:10.044Z,1524.38
2022-08-20T13:02:10.033Z,303.75
2022-08-20T13:03:10.063Z,275.62
2022-08-20T13:04:10.044Z,961.88
2022-08-20T13:05:10.011Z,506.25
2022-08-20T13:06:10.004Z,270
2022-08-20T13:07:09.986Z,230.62
2022-08-20T13:08:09.981Z,202.5
2022-08-20T13:09:09.991Z,202.5
2022-08-20T13:10:09.954Z,208.12
2022-08-20T13:11:09.949Z,270
2022-08-20T13:12:09.970Z,275.62
2022-08-20T13:13:09.921Z,247.5
2022-08-20T13:14:09.912Z,213.75
2022-08-20T13:15:09.912Z,213.75
2022-08-20T13:16:09.904Z,196.88
2022-08-20T13:17:09.909Z,191.25
2022-08-20T13:18:09.888Z,213.75
2022-08-20T13:19:09.865Z,202.5
2022-08-20T13:20:09.850Z,253.12
2022-08-20T13:21:09.842Z,253.12
2022-08-20T13:22:09.839Z,337.5
2022-08-20T13:23:09.828Z,219.38
2022-08-20T13:24:09.839Z,213.75
2022-08-20T13:25:09.812Z,281.25
2022-08-20T13:26:09.812Z,320.62
2022-08-20T13:27:09.823Z,202.5
2022-08-20T13:28:09.789Z,331.88
2022-08-20T13:29:09.780Z,343.12
2022-08-20T13:30:09.790Z,348.75